Airfield :
LOGIN :

Register | Disclaimer

   EN    FR    IT 

 










Legend :    VFR   Marginal VFR   IFR   Intensive IFR   Very Intensive IFR
Visi :
Ceiling :
>= 8 km
>= 3000ft
5 to 8 km
1000 to 3000 ft
1500m to 5 km
500 to 1000 ft
800 to 1500m
200 to 500 ft
< 800m
< 200 ft
Symbols :   Thunderstorms  Fog  Heavy snow  Heavy precipitations  Wind > 20 kt
SIGMETs :     Misc.  Thunderstorms  Icing  Turbulence  Mountain Waves  Volcanic Ashes






- Airport Elevation : 70 ft
- IATA code : LEI


LEAM - Almeria

CURRENT METAR :
  • 220830Z 19003KT 150V240 CAVOK 24/13 Q1020

EXPIRED METARs :
  • 220800Z 16003KT 110V280 CAVOK 24/12 Q1020
  • 220730Z 16003KT 100V230 CAVOK 23/13 Q1020
  • 220700Z VRB02KT CAVOK 24/12 Q1020
  • 220630Z 34005KT CAVOK 25/08 Q1020
  • 220600Z VRB01KT CAVOK 22/09 Q1019
  • 220530Z 35004KT CAVOK 22/09 Q1019
  • 220500Z 35005KT CAVOK 21/08 Q1019
  • 220430Z 30004KT CAVOK 20/08 Q1019
  • 220400Z VRB01KT CAVOK 21/09 Q1019

TAF TAF LEAM
Valid from the 22 at 06:00 until the 23 at 06:00 UTC


220500Z 2206/2306 VRB02KT CAVOK TX28/2215Z TN21/2305Z
BECMG 2209/2212 19010KT
BECMG 2218/2220 VRB02KT



MET'MAP, your aeronautical weather chart ! - Copyright ORBIFLY December 2007 - Disclaimer

ORBIFLY MET'MAP TEAM :

Programming & Development : Alexandra Zaïnal
Original concept : Baudouin d'Aumeries
Technical & hardware support : Manuel Goepfert
Assistance : Marc-Olivier Méhu




SOURCES & CREDITS :

   NOAA